Time;durP1;ratioP1;P1;durP2;ratioP2;P2;SDS_P1;SDS_P2;PMS_P1;PMS_P2;Temp;Humidity;BMP_temperature;BMP_pressure;BME280_temperature;BME280_humidity;BME280_pressure;Samples;Min_cycle;Max_cycle;Signal;HPM_P1;HPM_P2
2021/01/15 07:29:13;;;;;;;27.27;10.97;;;;;;;-8.10;76.23;99323.02;1616550;87;21271;-68
2021/01/15 07:31:45;;;;;;;25.93;11.70;;;;;;;-8.15;75.37;99329.71;1653360;84;21344;-67
2021/01/15 07:34:18;;;;;;;25.33;10.47;;;;;;;-8.19;75.23;99331.73;1622121;86;21287;-65
2021/01/15 07:36:47;;;;;;;27.73;11.10;;;;;;;-8.13;75.28;99335.73;1670267;81;21419;-65
2021/01/15 07:39:19;;;;;;;27.63;11.07;;;;;;;-8.14;74.62;99339.09;1653589;85;21309;-64
2021/01/15 07:41:54;;;;;;;28.10;10.73;;;;;;;-8.13;74.54;99342.12;1675343;84;21210;-64
2021/01/15 07:44:34;;;;;;;23.10;10.53;;;;;;;-8.11;74.53;99343.02;1673323;84;21294;-65
2021/01/15 07:47:02;;;;;;;29.07;12.33;;;;;;;-8.10;74.49;99343.45;1682550;82;21224;-64
2021/01/15 07:49:45;;;;;;;26.77;10.47;;;;;;;-8.08;74.19;99342.66;1691274;82;22140;-65
2021/01/15 07:52:13;;;;;;;25.57;10.73;;;;;;;-8.07;73.88;99351.22;1684056;80;21199;-69
2021/01/15 07:55:09;;;;;;;29.80;11.27;;;;;;;-8.06;73.16;99354.21;1641259;86;21242;-70
2021/01/15 07:57:36;;;;;;;25.57;10.40;;;;;;;-8.12;72.71;99365.16;1646185;84;21351;-68
2021/01/15 08:00:27;;;;;;;23.43;10.70;;;;;;;-8.12;72.45;99365.55;1672496;82;21236;-70
2021/01/15 08:03:00;;;;;;;26.23;11.13;;;;;;;-8.13;72.50;99362.13;1668359;84;21410;-70
2021/01/15 08:05:28;;;;;;;20.10;9.47;;;;;;;-8.13;72.69;99366.39;1668572;84;21985;-72
2021/01/15 08:08:17;;;;;;;28.83;11.70;;;;;;;-8.23;71.87;99371.27;1705293;79;21641;-64
2021/01/15 08:10:50;;;;;;;28.93;11.07;;;;;;;-8.27;71.98;99372.00;1680654;83;21226;-65
2021/01/15 08:13:29;;;;;;;28.40;11.70;;;;;;;-8.24;72.04;99377.17;1671297;84;21158;-65
2021/01/15 08:16:06;;;;;;;24.00;10.70;;;;;;;-8.20;71.81;99384.52;1670013;82;22056;-65
2021/01/15 08:18:37;;;;;;;30.43;10.47;;;;;;;-8.18;72.20;99389.27;1679923;84;21609;-66
2021/01/15 08:21:11;;;;;;;26.57;9.93;;;;;;;-8.11;72.45;99396.26;1708804;81;21266;-65
2021/01/15 08:23:39;;;;;;;25.90;11.37;;;;;;;-8.08;72.65;99391.22;1668258;80;21283;-69
2021/01/15 08:26:31;;;;;;;22.20;9.03;;;;;;;-8.00;72.44;99393.98;1667150;84;21212;-71
2021/01/15 08:28:58;;;;;;;;;;;;;;;-8.00;73.09;99393.98;1667189;84;21841;-70
2021/01/15 08:31:26;;;;;;;25.27;11.73;;;;;;;-7.91;72.81;99395.50;1662510;85;20276;-71
2021/01/15 08:34:09;;;;;;;26.67;9.77;;;;;;;-7.83;72.82;99393.98;1668460;85;21600;-70
2021/01/15 08:36:42;;;;;;;28.73;11.10;;;;;;;-7.79;71.43;99400.47;1717352;81;21404;-71
2021/01/15 08:39:23;;;;;;;26.13;11.00;;;;;;;-7.70;71.15;99406.66;1843253;76;27431;-71
2021/01/15 08:41:58;;;;;;;24.73;9.33;;;;;;;-7.76;70.30;99401.80;1815375;79;21339;-72
2021/01/15 08:44:34;;;;;;;24.17;9.70;;;;;;;-7.75;70.26;99408.25;1798270;77;22163;-71
2021/01/15 08:46:57;;;;;;;29.40;10.33;;;;;;;-7.71;70.00;99401.50;1778659;80;21583;-70
2021/01/15 08:49:24;;;;;;;24.33;10.30;;;;;;;-7.58;70.17;99403.53;1783659;80;21714;-72
2021/01/15 08:51:52;;;;;;;29.77;12.60;;;;;;;-7.35;70.18;99402.79;1768152;80;21196;-71
2021/01/15 08:54:21;;;;;;;27.63;10.60;;;;;;;-7.24;69.86;99400.06;1782790;80;21229;-70
2021/01/15 08:56:50;;;;;;;25.23;10.70;;;;;;;-7.17;69.65;99403.62;1780284;80;21754;-71
2021/01/15 08:59:32;;;;;;;24.77;10.57;;;;;;;-7.13;68.95;99397.76;1783064;79;21187;-71
2021/01/15 09:02:06;;;;;;;25.00;9.20;;;;;;;-7.07;68.72;99405.55;1781749;80;21187;-71
2021/01/15 09:04:34;;;;;;;24.80;11.00;;;;;;;-6.94;68.02;99404.13;1783752;78;21182;-71
2021/01/15 09:07:06;;;;;;;27.90;10.73;;;;;;;-6.72;67.79;99402.86;1781393;80;21192;-71
2021/01/15 09:09:35;;;;;;;21.77;10.30;;;;;;;-6.37;66.11;99399.74;1783795;80;21375;-71
2021/01/15 09:12:08;;;;;;;25.80;9.97;;;;;;;-6.14;66.42;99402.73;1770653;80;21187;-70
2021/01/15 09:14:36;;;;;;;27.10;11.23;;;;;;;-5.94;64.70;99408.63;1777176;79;21203;-72
2021/01/15 09:17:07;;;;;;;21.23;9.93;;;;;;;-5.96;63.76;99402.60;1781468;80;21120;-70
2021/01/15 09:19:36;;;;;;;25.40;10.32;;;;;;;-5.88;64.86;99407.85;1782395;80;21470;-73
2021/01/15 09:22:07;;;;;;;26.37;11.10;;;;;;;-5.72;64.13;99404.70;1781859;80;21184;-70
2021/01/15 09:24:35;;;;;;;25.85;10.13;;;;;;;-5.76;62.96;99407.63;1781072;79;21183;-72
2021/01/15 09:27:06;;;;;;;22.77;10.50;;;;;;;-5.72;64.15;99410.70;1765272;80;21146;-71
2021/01/15 09:29:35;;;;;;;21.23;9.27;;;;;;;-5.47;63.99;99412.39;1781861;80;21171;-70
2021/01/15 09:32:03;;;;;;;25.20;11.70;;;;;;;-5.36;62.85;99404.44;1783088;80;21682;-71
2021/01/15 09:34:32;;;;;;;24.53;10.10;;;;;;;-5.18;63.16;99402.97;1782881;80;21221;-70
2021/01/15 09:37:01;;;;;;;27.57;9.77;;;;;;;-5.12;60.43;99405.20;1779866;80;21210;-71
2021/01/15 09:39:29;;;;;;;22.10;9.80;;;;;;;-5.18;60.92;99405.53;1780107;80;21672;-72
2021/01/15 09:41:58;;;;;;;28.93;11.23;;;;;;;-5.25;61.27;99407.14;1779230;80;21195;-70
2021/01/15 09:44:28;;;;;;;25.92;11.15;;;;;;;-5.40;60.32;99405.22;1777478;78;21151;-70
2021/01/15 09:47:00;;;;;;;;;;;;;;;-5.44;60.05;99407.29;1785596;80;21647;-70
2021/01/15 09:49:33;;;;;;;27.07;11.17;;;;;;;-5.61;60.78;99404.86;1777734;79;20348;-71
2021/01/15 09:52:02;;;;;;;22.37;10.00;;;;;;;-5.60;61.42;99401.48;1772889;80;21135;-69
2021/01/15 09:54:30;;;;;;;26.07;10.07;;;;;;;-5.68;59.81;99409.06;1776644;79;21160;-68
2021/01/15 09:56:59;;;;;;;31.67;13.03;;;;;;;-5.78;60.90;99410.58;1779732;80;21637;-70
2021/01/15 09:59:27;;;;;;;29.07;11.43;;;;;;;-5.86;61.00;99413.45;1783284;80;22977;-68
2021/01/15 10:01:55;;;;;;;28.83;12.90;;;;;;;-5.97;61.49;99408.58;1784328;80;21198;-71
2021/01/15 10:04:24;;;;;;;29.23;11.07;;;;;;;-6.08;61.84;99419.05;1783904;80;21176;-69
2021/01/15 10:06:53;;;;;;;30.30;11.10;;;;;;;-6.01;61.96;99417.05;1778566;80;21822;-68
2021/01/15 10:09:21;;;;;;;24.93;10.90;;;;;;;-6.01;61.87;99417.05;1778655;80;21151;-69
2021/01/15 10:11:50;;;;;;;27.57;12.37;;;;;;;-6.10;61.96;99416.88;1783022;80;21885;-69
2021/01/15 10:14:19;;;;;;;24.67;10.80;;;;;;;-6.03;62.07;99415.73;1754332;80;21725;-70
2021/01/15 10:16:52;;;;;;;26.70;11.03;;;;;;;-6.03;61.89;99418.71;1753271;80;21122;-71
2021/01/15 10:19:20;;;;;;;21.17;10.33;;;;;;;-6.13;62.06;99414.70;1774229;79;21202;-71
2021/01/15 10:21:51;;;;;;;26.07;11.73;;;;;;;-6.20;61.96;99410.73;1772445;80;21832;-72
2021/01/15 10:24:20;;;;;;;24.02;10.43;;;;;;;-6.24;61.51;99406.37;1744476;80;21831;-71
2021/01/15 10:26:48;;;;;;;25.17;10.10;;;;;;;-6.36;61.23;99419.81;1775188;80;21197;-71
2021/01/15 10:29:15;;;;;;;25.37;10.17;;;;;;;-6.40;61.37;99418.02;1770028;79;21273;-71
2021/01/15 10:31:50;;;;;;;25.80;11.37;;;;;;;-6.37;61.86;99419.39;1782665;80;22157;-74
2021/01/15 10:34:18;;;;;;;24.90;11.33;;;;;;;-6.24;61.75;99431.58;1771325;80;21162;-72
2021/01/15 10:36:47;;;;;;;23.67;11.30;;;;;;;-6.02;62.05;99425.16;1777011;80;21620;-73
2021/01/15 10:39:15;;;;;;;29.77;11.57;;;;;;;-5.96;61.64;99423.11;1789444;79;21202;-72
2021/01/15 10:41:45;;;;;;;26.67;12.50;;;;;;;-5.98;62.18;99425.67;1784228;79;21166;-72
2021/01/15 10:44:16;;;;;;;29.77;12.70;;;;;;;-6.07;62.36;99424.61;1778429;79;21128;-72
2021/01/15 10:46:46;;;;;;;30.93;12.63;;;;;;;-6.20;63.10;99435.93;1770522;80;21139;-74
2021/01/15 10:49:16;;;;;;;27.30;11.85;;;;;;;-6.36;63.65;99441.59;1755455;80;21789;-70
2021/01/15 10:51:45;;;;;;;27.20;12.83;;;;;;;-6.49;63.86;99437.05;1761649;80;21171;-72
2021/01/15 10:54:13;;;;;;;26.77;11.77;;;;;;;-6.63;63.83;99438.91;1757069;80;21147;-72
2021/01/15 10:56:43;;;;;;;31.90;13.47;;;;;;;-6.71;63.87;99435.34;1768016;80;21159;-73
2021/01/15 10:59:11;;;;;;;33.55;12.85;;;;;;;-6.80;63.70;99435.14;1757616;80;21151;-70
2021/01/15 11:01:43;;;;;;;29.53;11.47;;;;;;;-7.05;64.05;99442.28;1754968;80;21396;-71
2021/01/15 11:04:12;;;;;;;20.10;8.87;;;;;;;-7.25;64.68;99440.95;1770795;80;21163;-72
2021/01/15 11:06:42;;;;;;;22.97;11.07;;;;;;;-7.34;65.08;99445.86;1760330;80;21183;-72
2021/01/15 11:09:13;;;;;;;28.67;10.70;;;;;;;-7.44;64.99;99443.08;1764410;80;21177;-71
2021/01/15 11:11:49;;;;;;;26.17;10.47;;;;;;;-7.50;65.78;99448.07;1745840;80;21682;-71
2021/01/15 11:14:20;;;;;;;22.30;9.67;;;;;;;-7.48;65.31;99443.83;1752814;80;21387;-72
2021/01/15 11:16:48;;;;;;;23.90;10.70;;;;;;;-7.50;64.96;99442.95;1763336;80;21218;-71
2021/01/15 11:19:16;;;;;;;26.50;9.43;;;;;;;-7.53;65.26;99435.19;1762116;80;21206;-70
2021/01/15 11:21:44;;;;;;;25.67;10.23;;;;;;;-7.54;64.72;99443.70;1761094;80;21172;-72
2021/01/15 11:24:14;;;;;;;21.07;8.60;;;;;;;-7.51;64.34;99438.65;1767312;80;21710;-70
2021/01/15 11:26:42;;;;;;;26.23;9.77;;;;;;;-7.50;63.81;99440.39;1769064;80;21376;-71
2021/01/15 11:29:10;;;;;;;29.43;10.13;;;;;;;-7.39;63.76;99440.20;1743822;80;21188;-70
2021/01/15 11:31:41;;;;;;;22.60;9.73;;;;;;;-7.32;63.98;99439.94;1763364;80;21164;-71
2021/01/15 11:34:10;;;;;;;22.40;8.30;;;;;;;-7.20;63.99;99450.48;1764501;80;22126;-69
2021/01/15 11:36:39;;;;;;;20.57;9.07;;;;;;;-7.18;62.00;99442.82;1760769;80;21198;-70
2021/01/15 11:39:09;;;;;;;19.10;9.10;;;;;;;-7.31;61.18;99443.39;1757681;80;21362;-71
2021/01/15 11:41:39;;;;;;;21.25;8.75;;;;;;;-7.39;61.99;99441.48;1746184;80;21134;-70
2021/01/15 11:44:14;;;;;;;21.47;8.27;;;;;;;-7.40;62.38;99444.89;1776027;80;21567;-71
2021/01/15 11:46:42;;;;;;;24.40;10.43;;;;;;;-7.40;62.67;99441.05;1773034;80;21177;-72
2021/01/15 11:49:13;;;;;;;23.77;9.33;;;;;;;-7.41;62.57;99448.30;1768150;80;21186;-76
2021/01/15 11:51:41;;;;;;;22.10;10.23;;;;;;;-7.49;62.39;99449.78;1776718;80;21403;-74
2021/01/15 11:54:16;;;;;;;20.00;9.03;;;;;;;-7.65;61.85;99455.35;1768321;80;21199;-72
2021/01/15 11:56:47;;;;;;;23.03;10.00;;;;;;;-7.82;62.50;99454.94;1774128;80;21177;-72
2021/01/15 11:59:14;;;;;;;24.25;9.60;;;;;;;-7.95;62.71;99460.13;1754175;80;21150;-73
2021/01/15 12:01:42;;;;;;;22.83;9.40;;;;;;;-7.94;63.63;99464.40;1774708;80;21170;-74
2021/01/15 12:04:10;;;;;;;22.97;9.60;;;;;;;-7.76;63.14;99460.61;1776644;80;21925;-73
2021/01/15 12:08:48;;;;;;;19.53;8.77;;;;;;;-7.26;62.59;99453.31;1747558;79;26936;-73
2021/01/15 12:11:15;;;;;;;22.80;9.63;;;;;;;-7.15;61.63;99454.82;1722547;82;21268;-74
2021/01/15 12:13:43;;;;;;;18.67;8.50;;;;;;;-6.93;60.98;99456.19;1722051;82;21398;-74
2021/01/15 12:16:12;;;;;;;25.37;9.30;;;;;;;-6.75;60.75;99451.47;1724466;82;21107;-72
2021/01/15 12:18:41;;;;;;;19.90;10.07;;;;;;;-6.69;59.56;99450.33;1696322;82;21163;-70
2021/01/15 12:21:18;;;;;;;21.57;9.30;;;;;;;-6.76;59.80;99449.75;1679953;85;21188;-73
2021/01/15 12:23:46;;;;;;;19.87;8.27;;;;;;;-6.78;60.34;99451.41;1686938;84;21206;-74
2021/01/15 12:26:14;;;;;;;20.53;9.00;;;;;;;-6.79;60.05;99446.68;1685503;84;21219;-72
2021/01/15 12:28:42;;;;;;;19.13;8.20;;;;;;;-6.81;60.18;99442.36;1686256;84;21210;-73
2021/01/15 12:31:09;;;;;;;25.57;9.03;;;;;;;-6.90;60.63;99447.28;1722439;82;22134;-72
2021/01/15 12:33:37;;;;;;;17.97;8.53;;;;;;;-6.99;60.68;99444.98;1721964;82;21169;-73
2021/01/15 12:36:07;;;;;;;18.87;9.07;;;;;;;-7.16;61.04;99453.96;1728484;82;21191;-71
2021/01/15 12:38:34;;;;;;;16.30;8.13;;;;;;;-7.12;61.97;99453.21;1653545;82;21896;-74
2021/01/15 12:41:03;;;;;;;17.90;9.10;;;;;;;-7.11;62.56;99453.64;1718396;82;21163;-72
2021/01/15 12:43:31;;;;;;;23.50;10.47;;;;;;;-7.19;61.53;99456.46;1712668;80;21677;-64
2021/01/15 12:46:07;;;;;;;;;;;;;;;-7.28;61.79;99461.36;1666103;84;21165;-64
2021/01/15 12:48:35;;;;;;;18.20;8.43;;;;;;;-7.37;61.70;99459.44;1657833;84;20296;-63
2021/01/15 12:51:06;;;;;;;19.60;9.00;;;;;;;-7.49;62.45;99461.30;1677570;84;21407;-64
2021/01/15 12:53:35;;;;;;;22.07;9.60;;;;;;;-7.56;63.09;99466.23;1678952;84;21232;-65
2021/01/15 12:56:05;;;;;;;23.43;9.57;;;;;;;-7.58;62.95;99462.34;1678986;85;21716;-64
2021/01/15 12:58:34;;;;;;;25.75;11.75;;;;;;;-7.58;62.90;99467.45;1679312;85;26728;-64
2021/01/15 13:01:01;;;;;;;27.80;9.67;;;;;;;-7.67;62.60;99467.23;1679146;84;21217;-64
2021/01/15 13:03:31;;;;;;;21.83;9.67;;;;;;;-7.80;62.67;99476.27;1724327;82;21441;-64
2021/01/15 13:06:02;;;;;;;26.17;10.70;;;;;;;-7.84;63.12;99475.75;1727802;81;21163;-64
2021/01/15 13:08:30;;;;;;;20.63;9.53;;;;;;;-7.83;63.58;99471.94;1728967;82;21184;-64
2021/01/15 13:10:58;;;;;;;22.33;9.60;;;;;;;-7.75;63.73;99466.16;1733094;82;21219;-63
2021/01/15 13:13:26;;;;;;;22.93;9.17;;;;;;;-7.70;63.80;99472.28;1732708;82;21183;-64
2021/01/15 13:15:54;;;;;;;20.27;9.40;;;;;;;-7.72;63.70;99467.53;1730464;82;21753;-65
2021/01/15 13:18:24;;;;;;;23.83;9.53;;;;;;;-7.74;63.76;99469.18;1728165;82;21250;-64
2021/01/15 13:20:52;;;;;;;21.03;10.47;;;;;;;-7.81;64.23;99470.30;1729845;82;21173;-64
2021/01/15 13:23:20;;;;;;;22.97;10.83;;;;;;;-7.93;64.32;99466.15;1729454;82;21226;-63
2021/01/15 13:25:49;;;;;;;21.33;8.73;;;;;;;-7.96;64.97;99472.44;1730007;82;21215;-65
2021/01/15 13:28:18;;;;;;;16.70;7.50;;;;;;;-7.97;65.60;99470.72;1731768;82;21173;-66
2021/01/15 13:30:46;;;;;;;21.73;10.47;;;;;;;-7.99;65.76;99471.50;1725145;82;21211;-63
2021/01/15 13:33:16;;;;;;;20.03;8.87;;;;;;;-8.04;65.20;99481.61;1715078;82;21195;-64
2021/01/15 13:35:47;;;;;;;20.97;9.33;;;;;;;-8.14;65.85;99488.16;1717525;82;21199;-64
2021/01/15 13:38:16;;;;;;;16.33;8.83;;;;;;;-8.21;66.02;99486.27;1660808;85;21912;-63
2021/01/15 13:40:44;;;;;;;21.30;10.10;;;;;;;-8.23;66.50;99486.22;1661179;85;21445;-64
2021/01/15 13:43:13;;;;;;;20.90;9.27;;;;;;;-8.25;66.47;99484.44;1728303;82;21669;-64
2021/01/15 13:45:40;;;;;;;16.07;8.00;;;;;;;-8.32;66.79;99477.44;1697986;78;21572;-70
2021/01/15 13:48:09;;;;;;;15.07;7.93;;;;;;;-8.41;67.27;99479.34;1739246;81;21251;-68
2021/01/15 13:50:57;;;;;;;15.97;8.70;;;;;;;-8.48;67.60;99481.27;1737412;81;21132;-70
2021/01/15 13:53:26;;;;;;;16.17;7.53;;;;;;;-8.52;67.83;99482.00;1687768;84;22891;-69
2021/01/15 13:55:57;;;;;;;17.63;8.77;;;;;;;-8.53;68.21;99481.56;1675487;85;21967;-70
2021/01/15 13:58:25;;;;;;;19.45;8.53;;;;;;;-8.58;68.60;99474.16;1731912;81;21158;-70
2021/01/15 14:00:53;;;;;;;18.40;8.27;;;;;;;-8.62;68.65;99480.02;1702117;83;21169;-71
2021/01/15 14:03:22;;;;;;;20.57;8.83;;;;;;;-8.67;68.98;99487.54;1711116;83;21164;-69
2021/01/15 14:05:51;;;;;;;15.67;6.73;;;;;;;-8.72;69.32;99483.58;1720320;83;21373;-70
2021/01/15 14:08:19;;;;;;;17.50;8.90;;;;;;;-8.76;69.52;99487.27;1718472;83;21585;-69
2021/01/15 14:10:47;;;;;;;23.07;9.53;;;;;;;-8.82;69.59;99495.59;1716050;82;21201;-70
2021/01/15 14:13:15;;;;;;;17.27;8.67;;;;;;;-8.84;70.14;99502.75;1726978;83;21622;-70
2021/01/15 14:15:44;;;;;;;18.73;8.57;;;;;;;-8.85;70.47;99505.72;1720051;83;21598;-68
2021/01/15 14:18:12;;;;;;;13.50;7.53;;;;;;;-8.86;70.60;99509.06;1716223;83;21638;-69
2021/01/15 14:20:40;;;;;;;16.73;7.93;;;;;;;-8.90;70.80;99512.38;1719491;83;21657;-70
2021/01/15 14:23:08;;;;;;;18.43;8.60;;;;;;;-8.92;71.06;99517.41;1714635;83;21194;-69
2021/01/15 14:25:36;;;;;;;16.30;8.27;;;;;;;-8.93;71.31;99516.08;1712756;82;21683;-71
2021/01/15 14:28:04;;;;;;;22.10;9.73;;;;;;;-8.92;71.76;99514.00;1711281;83;21187;-69
2021/01/15 14:30:32;;;;;;;20.07;9.00;;;;;;;-8.92;72.06;99514.00;1716858;83;21353;-67
2021/01/15 14:33:01;;;;;;;19.83;9.33;;;;;;;-8.96;71.90;99521.95;1717348;82;21197;-73
2021/01/15 14:35:28;;;;;;;21.40;10.63;;;;;;;-8.98;71.92;99518.48;1717375;83;21180;-73
2021/01/15 14:37:57;;;;;;;23.23;10.17;;;;;;;-9.00;71.84;99521.40;1727351;82;21204;-72
2021/01/15 14:40:25;;;;;;;22.00;10.10;;;;;;;-9.07;71.95;99523.30;1717228;83;21221;-73
2021/01/15 14:42:53;;;;;;;25.07;11.00;;;;;;;-9.11;72.03;99533.84;1721037;83;21829;-72
2021/01/15 14:45:21;;;;;;;21.87;10.23;;;;;;;-9.12;72.30;99534.64;1715798;82;21212;-73
2021/01/15 14:47:49;;;;;;;22.07;9.43;;;;;;;-9.14;72.38;99541.37;1716587;82;21138;-72
2021/01/15 14:50:18;;;;;;;19.43;8.53;;;;;;;-9.17;72.43;99542.56;1714432;83;22494;-71
2021/01/15 14:52:49;;;;;;;23.30;9.40;;;;;;;-9.21;72.83;99541.99;1710401;83;21184;-70
2021/01/15 14:55:18;;;;;;;27.03;10.40;;;;;;;-9.20;73.17;99542.47;1714475;83;21224;-70
2021/01/15 14:57:46;;;;;;;17.33;8.20;;;;;;;-9.19;72.99;99545.47;1713540;83;21208;-71
2021/01/15 15:00:18;;;;;;;33.13;12.07;;;;;;;-9.19;73.14;99548.43;1713399;83;21163;-72
2021/01/15 15:02:49;;;;;;;21.17;9.27;;;;;;;-9.19;73.48;99542.91;1719165;83;21658;-70
2021/01/15 15:05:18;;;;;;;25.10;12.00;;;;;;;-9.18;73.32;99542.11;1716975;83;21172;-70
2021/01/15 15:07:47;;;;;;;23.37;9.77;;;;;;;-9.16;73.51;99544.28;1714943;82;21897;-71
2021/01/15 15:10:18;;;;;;;17.93;8.43;;;;;;;-9.19;73.36;99545.47;1717053;82;21241;-69
2021/01/15 15:12:52;;;;;;;20.30;9.43;;;;;;;-9.21;73.48;99538.58;1718462;83;21210;-70
2021/01/15 15:15:21;;;;;;;20.77;9.80;;;;;;;-9.23;73.85;99535.97;1710419;83;21163;-70
2021/01/15 15:17:50;;;;;;;28.43;11.13;;;;;;;-9.26;73.78;99532.06;1723176;83;21209;-70
2021/01/15 15:20:18;;;;;;;16.37;7.77;;;;;;;-9.30;73.84;99527.25;1725152;81;21350;-69
2021/01/15 15:22:46;;;;;;;21.50;9.33;;;;;;;-9.29;73.76;99534.52;1720121;83;21211;-73
2021/01/15 15:25:14;;;;;;;21.60;9.60;;;;;;;-9.30;73.58;99540.00;1715894;82;21431;-77
2021/01/15 15:27:42;;;;;;;22.77;9.73;;;;;;;-9.31;73.81;99547.62;1718649;81;21188;-71
2021/01/15 15:30:10;;;;;;;20.83;10.60;;;;;;;-9.32;74.16;99547.14;1718438;83;21151;-69
2021/01/15 15:32:40;;;;;;;19.82;9.73;;;;;;;-9.32;73.83;99539.08;1717151;83;21452;-69
2021/01/15 15:35:09;;;;;;;22.37;9.80;;;;;;;-9.33;73.54;99544.16;1710334;82;21235;-73
2021/01/15 15:37:37;;;;;;;26.10;10.43;;;;;;;-9.40;73.50;99547.32;1727213;82;21694;-75
2021/01/15 15:40:07;;;;;;;18.47;9.13;;;;;;;-9.46;73.61;99545.83;1710628;82;21234;-75
2021/01/15 15:42:35;;;;;;;21.37;9.13;;;;;;;-9.52;73.63;99546.09;1715483;83;21212;-75
2021/01/15 15:45:03;;;;;;;19.57;8.23;;;;;;;-9.57;73.80;99547.62;1711749;83;21627;-75
2021/01/15 15:47:36;;;;;;;21.70;9.37;;;;;;;-9.57;74.10;99549.28;1717430;83;21176;-74
2021/01/15 15:50:05;;;;;;;18.87;8.70;;;;;;;-9.58;74.31;99549.70;1714103;82;21177;-74
2021/01/15 15:52:35;;;;;;;37.42;12.33;;;;;;;-9.56;74.36;99558.27;1723435;81;21192;-75
2021/01/15 15:55:04;;;;;;;25.80;10.93;;;;;;;-9.54;74.47;99552.81;1668980;81;21216;-64
2021/01/15 15:57:32;;;;;;;24.27;9.97;;;;;;;-9.53;74.65;99557.08;1647485;85;21379;-65
2021/01/15 16:00:02;;;;;;;18.30;8.00;;;;;;;-9.51;74.81;99563.11;1640493;85;21235;-64
2021/01/15 16:02:36;;;;;;;26.10;10.17;;;;;;;-9.50;74.73;99566.52;1636373;85;21181;-65
2021/01/15 16:05:06;;;;;;;26.10;11.07;;;;;;;-9.55;74.71;99568.91;1629705;87;22230;-64
2021/01/15 16:07:34;;;;;;;26.40;10.32;;;;;;;-9.54;75.01;99564.29;1617705;87;21231;-64
2021/01/15 16:10:07;;;;;;;26.47;10.53;;;;;;;-9.55;75.27;99565.08;1628102;85;22447;-64
2021/01/15 16:12:35;;;;;;;21.30;9.93;;;;;;;-9.57;75.21;99575.66;1641044;85;21168;-64
2021/01/15 16:15:05;;;;;;;22.53;9.43;;;;;;;-9.58;75.26;99575.60;1634211;87;21352;-64
2021/01/15 16:17:35;;;;;;;25.35;11.22;;;;;;;-9.60;75.32;99575.53;1639850;87;21133;-64
2021/01/15 16:20:08;;;;;;;25.30;9.30;;;;;;;-9.57;75.44;99571.84;1641008;86;21199;-64
2021/01/15 16:22:37;;;;;;;20.17;7.57;;;;;;;-9.53;75.58;99576.62;1641140;86;21435;-64
2021/01/15 16:25:07;;;;;;;18.27;7.93;;;;;;;-9.55;75.62;99574.00;1641093;87;21228;-64
2021/01/15 16:27:35;;;;;;;19.23;8.15;;;;;;;-9.59;75.30;99581.11;1641134;87;21236;-65
2021/01/15 16:30:06;;;;;;;22.58;9.93;;;;;;;-9.66;75.40;99574.08;1637127;85;21219;-64
2021/01/15 16:32:39;;;;;;;20.67;8.50;;;;;;;-9.68;75.56;99570.98;1633824;85;21695;-64
2021/01/15 16:35:09;;;;;;;18.77;7.73;;;;;;;-9.70;75.39;99568.41;1641148;87;21679;-63
2021/01/15 16:37:38;;;;;;;14.33;7.20;;;;;;;-9.72;75.28;99572.58;1604230;88;22013;-64
2021/01/15 16:40:11;;;;;;;16.77;7.97;;;;;;;-9.73;75.53;99576.81;1633133;87;21561;-64
2021/01/15 16:42:41;;;;;;;18.10;8.13;;;;;;;-9.78;75.04;99575.76;1623894;87;21245;-64
2021/01/15 16:45:12;;;;;;;15.58;7.05;;;;;;;-9.82;74.90;99584.52;1648990;82;26888;-74
2021/01/15 16:47:41;;;;;;;21.17;8.40;;;;;;;-9.84;75.01;99587.44;1690633;84;21433;-73
2021/01/15 16:50:10;;;;;;;14.50;6.63;;;;;;;-9.86;74.84;99589.92;1705205;84;21685;-74
2021/01/15 16:52:38;;;;;;;17.02;7.40;;;;;;;-9.89;74.56;99587.28;1699797;84;21237;-75
2021/01/15 16:55:08;;;;;;;21.23;8.20;;;;;;;-9.96;74.60;99586.19;1637079;87;21553;-73
2021/01/15 16:57:38;;;;;;;16.07;6.50;;;;;;;-9.97;74.57;99590.80;1630398;87;21268;-73
2021/01/15 17:00:08;;;;;;;14.63;6.60;;;;;;;-9.98;74.44;99589.49;1622850;88;21393;-74
2021/01/15 17:02:35;;;;;;;18.13;8.13;;;;;;;-10.01;74.27;99594.05;1649482;80;21210;-67
2021/01/15 17:05:05;;;;;;;14.50;7.13;;;;;;;-10.02;74.04;99592.32;1671123;84;22125;-65
2021/01/15 17:07:34;;;;;;;16.60;7.67;;;;;;;-10.05;73.88;99592.22;1677822;84;21184;-65
2021/01/15 17:10:04;;;;;;;16.27;7.20;;;;;;;-10.07;73.79;99595.11;1661083;85;21196;-64
2021/01/15 17:12:32;;;;;;;21.20;8.63;;;;;;;-10.09;73.71;99596.73;1644529;87;21398;-65
2021/01/15 17:15:01;;;;;;;19.65;9.63;;;;;;;-10.09;73.67;99601.83;1641573;86;21268;-64
2021/01/15 17:17:38;;;;;;;19.63;8.73;;;;;;;-10.11;73.48;99608.54;1634541;87;21252;-65
2021/01/15 17:20:10;;;;;;;21.27;9.30;;;;;;;-10.13;73.31;99617.80;1634469;85;21240;-65
2021/01/15 17:22:39;;;;;;;21.90;8.77;;;;;;;-10.16;73.00;99612.60;1659722;85;21264;-66
2021/01/15 17:25:10;;;;;;;18.67;7.87;;;;;;;-10.20;72.78;99615.84;1671945;85;21222;-65
2021/01/15 17:27:38;;;;;;;25.70;10.03;;;;;;;-10.27;72.48;99624.06;1671778;85;21601;-63
2021/01/15 17:30:08;;;;;;;21.77;10.37;;;;;;;-10.29;72.48;99628.25;1671211;85;21302;-66
2021/01/15 17:32:37;;;;;;;24.43;9.80;;;;;;;-10.35;72.25;99621.27;1665777;85;21196;-66
2021/01/15 17:35:07;;;;;;;21.47;8.70;;;;;;;-10.52;72.10;99605.33;1662537;85;21213;-65
2021/01/15 17:37:39;;;;;;;19.77;8.60;;;;;;;-10.53;71.97;99613.78;1631201;85;22364;-65
2021/01/15 17:40:08;;;;;;;20.43;8.17;;;;;;;-10.63;71.86;99620.58;1615341;87;21226;-64
2021/01/15 17:42:36;;;;;;;22.50;9.77;;;;;;;-10.75;71.84;99623.92;1664234;85;21184;-64
2021/01/15 17:45:06;;;;;;;17.70;8.00;;;;;;;-10.87;71.95;99617.53;1669807;79;21228;-75
2021/01/15 17:47:34;;;;;;;20.20;8.50;;;;;;;-10.95;71.96;99621.84;1683196;84;21437;-74
2021/01/15 17:50:03;;;;;;;20.93;9.40;;;;;;;-11.07;72.10;99624.76;1690094;84;21359;-75
2021/01/15 17:52:31;;;;;;;22.57;8.90;;;;;;;-11.23;72.28;99612.67;1686933;84;21232;-75
2021/01/15 17:55:00;;;;;;;30.83;10.07;;;;;;;-11.31;72.49;99617.86;1640885;86;21285;-75
2021/01/15 17:57:28;;;;;;;22.77;9.37;;;;;;;-11.39;72.57;99623.02;1710824;83;21194;-75
2021/01/15 17:59:55;;;;;;;22.80;10.27;;;;;;;-11.45;72.78;99622.77;1717890;82;21200;-74
2021/01/15 18:02:23;;;;;;;22.67;9.03;;;;;;;-11.51;73.09;99612.34;1716748;81;22779;-75
2021/01/15 18:04:53;;;;;;;20.97;8.00;;;;;;;-11.59;73.17;99620.02;1708519;83;21203;-75
2021/01/15 18:07:21;;;;;;;22.90;10.17;;;;;;;-11.63;73.45;99616.09;1708737;82;21215;-75
2021/01/15 18:09:49;;;;;;;21.40;9.47;;;;;;;-11.67;73.72;99621.84;1707573;83;21206;-75
2021/01/15 18:12:17;;;;;;;24.83;9.43;;;;;;;-11.72;73.86;99613.16;1707356;82;21184;-75
2021/01/15 18:14:45;;;;;;;20.33;7.30;;;;;;;-11.75;73.76;99614.71;1695816;83;21410;-74
2021/01/15 18:17:13;;;;;;;18.23;8.10;;;;;;;-11.84;74.02;99605.88;1696594;84;21204;-74
2021/01/15 18:19:41;;;;;;;25.10;9.47;;;;;;;-11.95;74.15;99610.05;1707192;83;21196;-75
2021/01/15 18:22:10;;;;;;;27.00;11.47;;;;;;;-12.02;74.49;99613.13;1706853;82;21219;-75
2021/01/15 18:24:39;;;;;;;22.22;10.25;;;;;;;-12.08;74.38;99614.56;1707678;83;21231;-75
2021/01/15 18:27:06;;;;;;;18.43;8.10;;;;;;;-12.13;74.45;99613.50;1711677;83;21837;-75
2021/01/15 18:29:34;;;;;;;26.73;10.70;;;;;;;-12.19;74.60;99608.17;1711315;83;21638;-75
2021/01/15 18:32:02;;;;;;;24.77;10.13;;;;;;;-12.26;74.82;99608.66;1711701;83;21686;-75
2021/01/15 18:34:31;;;;;;;22.73;9.37;;;;;;;-12.29;74.90;99613.61;1715575;79;21333;-65
2021/01/15 18:37:01;;;;;;;23.98;9.75;;;;;;;-12.33;74.86;99612.99;1770254;80;21175;-66
2021/01/15 18:39:30;;;;;;;23.60;9.63;;;;;;;-12.35;74.95;99612.05;1749996;79;21394;-64
2021/01/15 18:41:59;;;;;;;28.00;11.33;;;;;;;-12.37;75.00;99621.29;1747532;80;21226;-64
2021/01/15 18:44:27;;;;;;;24.27;10.17;;;;;;;-12.41;74.96;99620.27;1758357;80;21182;-65
2021/01/15 18:46:55;;;;;;;28.90;11.83;;;;;;;-12.41;74.97;99627.02;1781792;80;21638;-65
2021/01/15 18:49:23;;;;;;;21.23;8.93;;;;;;;-12.44;75.23;99623.94;1762002;80;21191;-75
2021/01/15 18:51:55;;;;;;;22.77;8.83;;;;;;;-12.43;75.33;99629.47;1724530;82;21452;-75
2021/01/15 18:54:24;;;;;;;20.03;7.90;;;;;;;-12.44;75.47;99625.58;1704983;82;21697;-75
2021/01/15 18:56:52;;;;;;;28.97;10.53;;;;;;;-12.52;75.40;99615.95;1709035;82;21237;-75
2021/01/15 18:59:20;;;;;;;25.00;9.93;;;;;;;-12.50;75.26;99625.78;1688626;82;21246;-76
2021/01/15 19:01:49;;;;;;;20.77;8.10;;;;;;;-12.51;75.26;99629.13;1680584;82;21261;-75
2021/01/15 19:04:19;;;;;;;29.47;11.83;;;;;;;-12.52;75.23;99634.98;1696698;83;22044;-76